Home Code Reference WordPress Repository Plugins Metar ARFOR WordPress Shortcode Example

ARFOR WordPress Shortcode Example

This page is used to demonstrate the ARFOR feature of the Metar WordPress plugin.

BANKSTOWN YSBK

TAF AMD YSBK 191042Z 1911/1924
21008KT 9999 -SHRA SCT010 BKN020
INTER 1911/1922 5000 SHRA BKN010
RMK
T 21 21 20 20 Q 1012 1012 1011 1012

SPECI YSBK 191507Z AUTO 26004KT 9999 // OVC015 19/18 Q1012 RMK
RF00.0/003.2

BATHURST YBTH

TAF YBTH 191238Z 1914/2002
11008KT CAVOK
BECMG 1914/1915 11006KT 9999 BKN015
BECMG 1920/1922 09005KT 9999 BKN025
RMK
T 17 16 15 21 Q 1013 1012 1013 1014

METAR YBTH 191500Z AUTO 09007KT 9999 // NCD 18/16 Q1013 RMK
RF00.0/000.2

CAMDEN YSCN

TAF AMD YSCN 191043Z 1912/1924
VRB03KT 9999 -DZ SCT010 BKN020
INTER 1912/1923 5000 DZ BKN010
RMK
T 20 19 18 18 Q 1013 1012 1011 1012

METAR YSCN 191500Z AUTO 19006KT 9999 // OVC023 20/15 Q1012 RMK
RF00.0/000.0

* CANBERRA YSCB

TAF YSCB 191105Z 1912/2012
10008KT 9999 BKN017
BECMG 1922/1924 35008KT 9999 BKN030
FM200100 33010KT 9999 FEW040
FM200800 08015G25KT 9999 FEW030
BECMG 2010/2012 10008KT 9999 BKN020
RMK
T 15 14 13 15 Q 1014 1014 1013 1014

SPECI YSCB 191500Z AUTO 12004KT 9999 // OVC019 15/11 Q1014 RMK
RF00.0/000.0

COOMA YCOM

TAF YCOM 191238Z 1914/2002
05008KT 9999 BKN005
BECMG 1916/1918 04006KT 9999 BKN010
BECMG 1921/1923 25008KT 9999 SCT015
RMK
T 11 11 10 17 Q 1015 1014 1014 1015

SPECI YCOM 191500Z AUTO 05010KT 9999 // OVC012 12/10 Q1014 RMK
RF00.0/000.0

COOTAMUNDRA YCTM

Nil current TAF.

METAR/SPECI observations are not generated for this location.

COWRA YCWR

Nil current TAF.

METAR YCWR 191500Z AUTO 00000KT //// // ////// 16/06 Q1011 RMK
RF00.0/000.2

FORBES YFBS

Nil current TAF.

METAR YFBS 191500Z AUTO 17004KT //// // ////// 18/01 Q1011 RMK
RF00.0/000.0

GOULBURN YGLB

TAF AMD YGLB 190523Z 1905/1908
27015G25KT 9999 -SHRA SCT090
BECMG 1906/1907 12014KT 9999 -SHRA SCT025
BECMG 1907/1908 12014KT 9999 BKN020
RMK
T 30 18 Q 1008 1011

SPECI YGLB 191500Z AUTO 09009KT 9999 // OVC010 15/12 Q1014 RMK
RF00.0/000.2 PRESENT WEATHER SENSOR US

HOLSWORTHY YSHW

TAF AMD YSHW 191043Z 1911/1924
21008KT 9999 -SHRA SCT010 BKN020
INTER 1911/1922 5000 SHRA BKN010
RMK
T 21 20 19 19 Q 1012 1012 1011 1012

METAR YSHW 191500Z AUTO 19005KT 9999 // BKN019 OVC024 19/17 Q1012
RMK RF00.0/000.6

LORD HOWE ISLAND YLHI

TAF AMD YLHI 190952Z 1910/2012
12014KT 9999 -SHRA BKN012
FM200000 14014KT 9999 -SHRA SCT015 SCT025
FM200600 11014KT 9999 -DZ BKN012
INTER 1910/2000 5000 SHRA BKN008
TEMPO 2006/2012 3000 DZ BKN008
RMK
T 24 24 24 24 Q 1009 1009 1008 1008

SPECI YLHI 191506Z AUTO 12007KT 6000 // SCT007 BKN012 OVC021 24/22 Q1008
RMK RF00.0/000.4

MALLACOOTA YMCO

Nil current TAF.

METAR YMCO 191500Z AUTO 30004KT //// // ////// 15/11 Q1013 RMK
RF00.0/000.0

MERIMBULA YMER

TAF YMER 191227Z 1914/2002
23005KT 9999 BKN035
FM192000 12005KT 9999 BKN025
RMK
T 17 15 15 19 Q 1014 1013 1013 1014

METAR YMER 191500Z AUTO 00000KT 9999 // OVC040 17/12 Q1013 RMK
RF00.0/000.0

MORUYA YMRY

TAF YMRY 191226Z 1914/2002
20005KT 9999 -SHRA SCT015 BKN025
RMK
T 16 16 16 19 Q 1014 1013 1013 1014

METAR YMRY 191500Z AUTO 24005KT 9999 // OVC064 17/14 Q1013 RMK
RF00.0/000.0

NORFOLK ISLAND YSNF

TAF AMD YSNF 190952Z 1910/2012
07018KT 9999 -SHRA BKN008
FM191200 08018KT 8000 -DZ BKN005
INTER 1910/1912 3000 SHRA BKN005
TEMPO 1912/2012 2000 DZ OVC002
RMK FM191000 MOD TURB BLW 5000FT
T 23 22 22 23 Q 1011 1010 1009 1010

SPECI YSNF 191500Z AUTO 07013KT 9999 // OVC006 23/// Q1009 RMK
RF00.0/000.0

* NOWRA YSNW

YSNW TAF AMD YSNW 191127Z 1912/1924
19010KT 9999 BKN025
RMK
T 17 17 16 18 Q 1014 1013 1012 1013

METAR YSNW 191500Z AUTO 20008KT 9999 // OVC036 18/14 Q1013
RMK RF00.0/000.0

ORANGE YORG

TAF YORG 191238Z 1914/2002
10005KT CAVOK
BECMG 1915/1917 09005KT 9999 BKN010
BECMG 1921/1923 07005KT 9999 BKN020
RMK
T 14 14 14 20 Q 1014 1013 1014 1015

SPECI YORG 191500Z AUTO 00000KT 0350 // ////// 13/13 Q1014 RMK
RF00.0/000.0 CLD:SKY MAY BE OBSC

PARKES YPKS

TAF YPKS 190011Z 1902/1914
21014KT CAVOK
FM191300 17005KT CAVOK
RMK
T 30 32 30 23 Q 1008 1007 1007 1010

METAR YPKS 191500Z AUTO 19006KT 9999 // NCD 18/M01 Q1011 RMK
RF00.0/000.0

RICHMOND (NSW) YSRI

TAF YSRI 191041Z 1912/2012
19010KT 9999 -RA FEW010 BKN025
FM200000 17012KT 9999 -SHRA SCT010 BKN025
FM200800 16008KT 9999 SCT015 BKN030
TEMPO 1912/1924 3000 DZ RA BKN008
INTER 2000/2004 4000 SHRA BKN010
RMK
T 21 20 19 19 Q 1012 1012 1011 1012

SPECI YSRI 191500Z AUTO 23008KT 9000 // SCT006 BKN012 OVC016 19/18
Q1012 RMK RF00.0/001.0 PRESENT WEATHER SENSOR US

* SYDNEY YSSY

TAF YSSY 191108Z 1912/2018
19013KT 9999 -SHRA SCT010 BKN020
FM200000 15018KT 9999 -SHRA FEW015 BKN025
FM201000 14010KT 9999 -SHRA BKN020
INTER 1912/1914 5000 SHRA BKN010
RMK
T 21 22 21 22 Q 1012 1011 1011 1012

TTF METAR YSSY 191500Z 20016KT 9999 -DZ FEW015 BKN020 BKN030 19/18
Q1011
RMK RF00.0/003.8
NOSIG

TEMORA YTEM

Nil current TAF.

METAR YTEM 191500Z AUTO 16006KT //// // ////// 17/04 Q1012 RMK
RF00.0/000.0

WAGGA WAGGA YSWG

TAF YSWG 191059Z 1912/1924
22010KT CAVOK
FM191400 VRB03KT CAVOK
FM192300 26008KT CAVOK
RMK
T 20 16 14 15 Q 1011 1012 1012 1013

METAR YSWG 191500Z AUTO 19002KT 9999 // NCD 16/05 Q1012 RMK
RF00.0/000.0

WOLLONGONG YWOL

TAF AMD YWOL 191216Z 1912/2002
20007KT 9999 -SHRA SCT010 BKN025
FM192200 18010KT 9999 -SHRA BKN025
INTER 1912/2002 6000 SHRA BKN015
RMK
T 20 18 17 18 Q 1013 1012 1012 1012

METAR YWOL 191500Z AUTO 20007KT 9999 // OVC029 20/15 Q1012 RMK
RF00.0/000.0

YOUNG YYNG

TAF YYNG 190010Z 1902/1914
22010KT CAVOK
FM191300 15005KT CAVOK
RMK
T 27 29 27 18 Q 1008 1007 1008 1011

METAR YYNG 191500Z AUTO 18006KT 9999 // NCD 16/12 Q1012 RMK
RF00.0/000.0

* Note: The latest TTF automatically supersedes the TAF for the 3 hr validity of the TTF, unless otherwise specified in the TTF.